Bookmark and Share
Track history (hours):
 

Seahope II

Last reported at 2014-Apr-20 00:32 UTC. Time now 2014-Apr-20 00:53 UTC.
Position S 23°57' W 046°19'.

Length 190 m; draft 6.6 m.

Type: Cargo ship. MMSI: 248185000.

NotesDate/timePositionNaut miles runAvg speedWind from/ knotsBaromVisibWave heightAir tempDewpointWater temp
2014-Apr-20 00:32S 23°57' W 046°19'0 0.0
2014-Apr-19 23:32S 23°57' W 046°19'0 0.0
2014-Apr-19 22:32S 23°57' W 046°19'0 0.0
2014-Apr-19 21:32S 23°57' W 046°19'0 0.0
2014-Apr-19 20:32S 23°57' W 046°19'0 0.0
2014-Apr-19 19:32S 23°57' W 046°19'0 0.0
2014-Apr-19 18:32S 23°57' W 046°19'0 0.0
2014-Apr-19 17:32S 23°57' W 046°19'0 0.0
2014-Apr-19 16:32S 23°57' W 046°19'0 0.0
2014-Apr-19 15:32S 23°57' W 046°19'0 0.0
2014-Apr-19 14:17S 23°57' W 046°19'0 0.0
2014-Apr-19 13:32S 23°57' W 046°19'0 0.0
2014-Apr-19 12:32S 23°57' W 046°19'0 0.0
2014-Apr-19 11:33S 23°57' W 046°19'5 5.3
2014-Apr-19 10:33S 24°02' W 046°21'7 5.7
2014-Apr-19 09:19S 24°09' W 046°19'0 0.3
2014-Apr-19 08:17S 24°08' W 046°19'0 0.1
2014-Apr-19 07:32S 24°08' W 046°19'0 0.0
2014-Apr-19 06:23S 24°08' W 046°19'0 0.0
2014-Apr-19 05:29S 24°08' W 046°19'0 0.0
2014-Apr-19 02:20S 24°08' W 046°19'0 0.0
2014-Apr-19 01:29S 24°08' W 046°19'0 0.0
2014-Apr-19 00:32S 24°08' W 046°19'0 0.0
2014-Apr-18 22:20S 24°08' W 046°19'0 0.0
2014-Apr-18 14:14S 24°08' W 046°19'0 0.0
2014-Apr-18 13:23S 24°08' W 046°19'0 0.0
2014-Apr-18 12:08S 24°08' W 046°19'0 0.0
2014-Apr-18 11:20S 24°08' W 046°19'0 0.0
2014-Apr-18 10:32S 24°08' W 046°19'0 0.0
2014-Apr-18 09:29S 24°08' W 046°19'0 0.0
2014-Apr-18 08:20S 24°08' W 046°19'0 0.0
2014-Apr-18 07:32S 24°08' W 046°19'0 0.0
2014-Apr-18 06:32S 24°08' W 046°19'0 0.0
2014-Apr-18 05:20S 24°08' W 046°19'0 0.0
2014-Apr-18 04:14S 24°08' W 046°19'0 0.0
2014-Apr-17 21:26S 24°08' W 046°19'0 0.0
2014-Apr-17 19:32S 24°08' W 046°19'0 0.0
2014-Apr-17 16:11S 24°08' W 046°19'0 0.0
2014-Apr-17 14:26S 24°08' W 046°19'0 0.0
2014-Apr-17 13:29S 24°08' W 046°19'0 0.0
2014-Apr-17 12:32S 24°08' W 046°19'0 0.0
2014-Apr-17 11:32S 24°08' W 046°19'0 0.0
2014-Apr-17 10:26S 24°08' W 046°19'0 0.0
2014-Apr-17 09:23S 24°08' W 046°19'0 0.0
2014-Apr-17 08:32S 24°08' W 046°19'0 0.0
2014-Apr-17 07:26S 24°08' W 046°19'0 0.0
2014-Apr-16 23:17S 24°08' W 046°19'0 0.0
2014-Apr-16 22:32S 24°08' W 046°19'4 4.4
2014-Apr-16 21:33S 24°05' W 046°22'4 4.3
2014-Apr-16 20:32S 24°01' W 046°20'0 0.0
2014-Apr-16 19:32S 24°01' W 046°20'0 0.0
2014-Apr-16 18:29S 24°01' W 046°20'0 0.0
2014-Apr-16 17:29S 24°01' W 046°20'0 0.0
2014-Apr-16 16:32S 24°01' W 046°20'0 0.4
2014-Apr-16 15:33S 24°01' W 046°20'7 5.5
2014-Apr-16 14:13S 24°09' W 046°20'0 0.1
2014-Apr-16 13:19S 24°09' W 046°20'0 0.1
2014-Apr-16 12:29S 24°09' W 046°20'4 4.5
2014-Apr-16 11:33S 24°10' W 046°24'  

Dump ship's entire track history

sailing weather and tide predictions

Seahope II — 9HA2233 — position and weather